createdAt,value
2023-05-28T00:00:42.652Z,59.25
2023-05-28T00:03:13.212Z,59.10
2023-05-28T00:05:43.230Z,59.06
2023-05-28T00:08:11.428Z,59.11
2023-05-28T00:10:38.369Z,58.83
2023-05-28T00:13:05.171Z,58.86
2023-05-28T00:15:31.980Z,58.64
2023-05-28T00:18:01.772Z,58.78
2023-05-28T00:20:28.749Z,58.73
2023-05-28T00:22:55.453Z,58.70
2023-05-28T00:25:22.683Z,58.66
2023-05-28T00:27:49.551Z,58.64
2023-05-28T00:30:19.443Z,58.61
2023-05-28T00:32:46.367Z,58.59
2023-05-28T00:35:13.197Z,58.65
2023-05-28T00:37:39.999Z,58.64
2023-05-28T00:40:07.138Z,58.71
2023-05-28T00:42:33.850Z,58.72
2023-05-28T00:45:06.230Z,58.44
2023-05-28T00:47:40.310Z,58.37
2023-05-28T00:50:08.203Z,58.36
2023-05-28T00:52:35.882Z,58.13
2023-05-28T00:55:02.874Z,58.68
2023-05-28T00:57:29.749Z,58.76
2023-05-28T00:59:56.429Z,58.56
2023-05-28T01:02:23.214Z,58.42
2023-05-28T01:04:50.040Z,58.41
2023-05-28T01:07:16.629Z,58.29
2023-05-28T01:09:43.423Z,58.31
2023-05-28T01:12:11.379Z,58.38
2023-05-28T01:14:38.331Z,58.37
2023-05-28T01:17:05.509Z,58.41
2023-05-28T01:19:32.385Z,58.40
2023-05-28T01:22:06.908Z,58.43
2023-05-28T01:24:34.277Z,58.49
2023-05-28T01:27:01.020Z,58.50
2023-05-28T01:29:27.796Z,58.47
2023-05-28T01:31:54.714Z,58.47
2023-05-28T01:34:21.480Z,58.45
2023-05-28T01:36:53.148Z,58.47
2023-05-28T01:39:20.902Z,58.45
2023-05-28T01:41:48.584Z,58.42
2023-05-28T01:44:16.679Z,58.41
2023-05-28T01:46:44.480Z,58.40
2023-05-28T01:49:11.804Z,58.41
2023-05-28T01:51:38.698Z,58.39
2023-05-28T01:54:05.698Z,58.40
2023-05-28T01:56:32.427Z,58.36
2023-05-28T01:58:59.434Z,58.36
2023-05-28T02:01:26.087Z,58.34
2023-05-28T02:03:52.961Z,58.35
2023-05-28T02:06:19.747Z,58.37
2023-05-28T02:08:46.509Z,58.35
2023-05-28T02:11:13.103Z,58.36
2023-05-28T02:13:42.801Z,58.27
2023-05-28T02:16:09.605Z,58.32
2023-05-28T02:18:36.864Z,58.28
2023-05-28T02:21:04.256Z,58.28
2023-05-28T02:23:31.056Z,58.25
2023-05-28T02:25:57.770Z,58.28
2023-05-28T02:28:24.548Z,58.28
2023-05-28T02:30:51.363Z,58.29
2023-05-28T02:33:18.003Z,58.28
2023-05-28T02:35:44.750Z,58.29
2023-05-28T02:38:11.523Z,58.27
2023-05-28T02:40:38.464Z,58.26
2023-05-28T02:43:05.146Z,58.28
2023-05-28T02:45:31.942Z,58.25
2023-05-28T02:47:58.764Z,58.21
2023-05-28T02:50:25.578Z,58.16
2023-05-28T02:52:52.236Z,58.16
2023-05-28T02:55:19.176Z,58.13
2023-05-28T02:57:45.832Z,58.09
2023-05-28T03:00:12.870Z,58.12
2023-05-28T03:02:39.700Z,58.11
2023-05-28T03:05:06.568Z,58.09
2023-05-28T03:07:33.268Z,58.08
2023-05-28T03:10:00.173Z,58.09
2023-05-28T03:12:26.913Z,58.11
2023-05-28T03:14:53.629Z,58.12
2023-05-28T03:17:20.523Z,58.16
2023-05-28T03:19:49.367Z,58.13
2023-05-28T03:22:16.121Z,58.17
2023-05-28T03:24:42.809Z,58.08
2023-05-28T03:27:09.624Z,58.07
2023-05-28T03:29:36.257Z,58.06
2023-05-28T03:32:05.932Z,58.03
2023-05-28T03:34:32.671Z,58.07
2023-05-28T03:37:02.027Z,58.07
2023-05-28T03:39:31.398Z,58.06
2023-05-28T03:41:58.124Z,57.98
2023-05-28T03:44:24.928Z,58.01
2023-05-28T03:46:51.868Z,58.01
2023-05-28T03:49:18.710Z,57.96
2023-05-28T03:51:45.683Z,57.94
2023-05-28T03:54:12.615Z,57.99
2023-05-28T03:56:39.355Z,57.98
2023-05-28T03:59:06.035Z,57.97
2023-05-28T04:01:32.624Z,57.97
2023-05-28T04:03:59.517Z,57.92
2023-05-28T04:06:26.464Z,57.89
2023-05-28T04:08:53.129Z,57.91
2023-05-28T04:11:19.957Z,57.93
2023-05-28T04:13:46.504Z,57.92
2023-05-28T04:16:16.620Z,57.92
2023-05-28T04:18:43.522Z,57.91
2023-05-28T04:21:10.149Z,57.86
2023-05-28T04:23:39.736Z,57.88
2023-05-28T04:26:06.412Z,57.89
2023-05-28T04:28:33.520Z,57.87
2023-05-28T04:31:00.550Z,57.89
2023-05-28T04:33:27.328Z,57.85
2023-05-28T04:35:57.040Z,57.88
2023-05-28T04:38:23.788Z,57.85
2023-05-28T04:40:50.844Z,57.81
2023-05-28T04:43:17.781Z,57.86
2023-05-28T04:45:44.539Z,57.88
2023-05-28T04:48:11.194Z,57.81
2023-05-28T04:50:38.012Z,57.82
2023-05-28T04:53:04.783Z,57.82
2023-05-28T04:55:31.604Z,57.90
2023-05-28T04:57:58.225Z,57.79
2023-05-28T05:00:25.096Z,57.73
2023-05-28T05:02:51.993Z,57.79
2023-05-28T05:05:18.668Z,57.79
2023-05-28T05:07:45.416Z,57.71
2023-05-28T05:10:12.345Z,57.71
2023-05-28T05:12:39.388Z,57.73
2023-05-28T05:15:06.666Z,57.86
2023-05-28T05:17:33.760Z,57.35
2023-05-28T05:20:05.943Z,57.27
2023-05-28T05:22:32.821Z,56.94
2023-05-28T05:24:59.638Z,56.76
2023-05-28T05:27:26.695Z,56.52
2023-05-28T05:29:54.023Z,56.44
2023-05-28T05:32:21.426Z,56.49
2023-05-28T05:34:49.618Z,56.41
2023-05-28T05:37:16.546Z,56.51
2023-05-28T05:39:43.516Z,56.48
2023-05-28T05:42:10.479Z,56.37
2023-05-28T05:44:40.058Z,56.29
2023-05-28T05:47:07.204Z,56.26
2023-05-28T05:49:34.225Z,56.17
2023-05-28T05:52:01.015Z,56.22
2023-05-28T05:54:27.955Z,56.16
2023-05-28T05:56:58.813Z,56.14
2023-05-28T05:59:29.423Z,56.05
2023-05-28T06:01:56.426Z,55.92
2023-05-28T06:04:23.578Z,55.85
2023-05-28T06:06:51.607Z,55.63
2023-05-28T06:09:18.627Z,55.52
2023-05-28T06:11:45.605Z,55.10
2023-05-28T06:14:13.318Z,55.12
2023-05-28T06:16:40.297Z,54.98
2023-05-28T06:19:07.235Z,54.90
2023-05-28T06:21:34.092Z,54.86
2023-05-28T06:24:03.879Z,54.80
2023-05-28T06:26:30.685Z,55.03
2023-05-28T06:29:01.053Z,54.73
2023-05-28T06:31:31.246Z,54.85
2023-05-28T06:33:58.302Z,54.53
2023-05-28T06:36:25.718Z,54.74
2023-05-28T06:38:52.638Z,54.55
2023-05-28T06:41:19.674Z,54.63
2023-05-28T06:43:46.554Z,54.43
2023-05-28T06:46:13.309Z,54.69
2023-05-28T06:48:40.920Z,54.82
2023-05-28T06:51:07.593Z,54.66
2023-05-28T06:53:34.352Z,55.14
2023-05-28T06:56:01.261Z,55.06
2023-05-28T06:58:31.449Z,55.81
2023-05-28T07:00:59.010Z,56.90
2023-05-28T07:03:26.061Z,57.60
2023-05-28T07:05:53.175Z,57.92
2023-05-28T07:08:20.254Z,57.80
2023-05-28T07:10:47.298Z,57.06
2023-05-28T07:13:14.100Z,56.60
2023-05-28T07:15:46.484Z,56.17
2023-05-28T07:18:16.280Z,56.05
2023-05-28T07:20:43.652Z,55.88
2023-05-28T07:23:13.686Z,55.92
2023-05-28T07:25:41.795Z,56.20
2023-05-28T07:28:08.723Z,56.20
2023-05-28T07:30:38.692Z,56.12
2023-05-28T07:33:05.954Z,55.79
2023-05-28T07:35:32.929Z,56.05
2023-05-28T07:38:00.307Z,56.38
2023-05-28T07:40:29.581Z,56.56
2023-05-28T07:42:56.292Z,56.96
2023-05-28T07:45:22.821Z,58.05
2023-05-28T07:47:50.868Z,58.05
2023-05-28T07:50:21.278Z,57.99
2023-05-28T07:52:47.883Z,58.04
2023-05-28T07:55:14.751Z,56.73
2023-05-28T07:57:41.560Z,57.40
2023-05-28T08:00:08.619Z,58.01
2023-05-28T08:02:35.696Z,57.66
2023-05-28T08:05:02.817Z,57.84
2023-05-28T08:07:29.624Z,57.97
2023-05-28T08:09:56.809Z,58.13
2023-05-28T08:12:23.593Z,58.33
2023-05-28T08:14:50.569Z,58.58
2023-05-28T08:17:17.495Z,58.01
2023-05-28T08:19:55.544Z,58.85
2023-05-28T08:22:28.000Z,58.64
2023-05-28T08:24:54.899Z,57.22
2023-05-28T08:27:21.726Z,57.27
2023-05-28T08:29:48.480Z,57.92
2023-05-28T08:32:15.480Z,59.09
2023-05-28T08:34:42.912Z,59.43
2023-05-28T08:37:10.150Z,59.28
2023-05-28T08:39:37.332Z,59.24
2023-05-28T08:42:08.035Z,58.16
2023-05-28T08:44:35.814Z,58.16
2023-05-28T08:47:02.794Z,58.36
2023-05-28T08:49:33.937Z,57.05
2023-05-28T08:52:02.184Z,57.71
2023-05-28T08:54:32.084Z,58.00
2023-05-28T08:57:02.714Z,57.81
2023-05-28T08:59:29.687Z,57.41
2023-05-28T09:01:57.940Z,57.54
2023-05-28T09:04:30.049Z,54.92
2023-05-28T09:06:56.674Z,55.42
2023-05-28T09:09:24.655Z,54.41
2023-05-28T09:11:51.320Z,54.45
2023-05-28T09:14:19.629Z,53.57
2023-05-28T09:16:46.346Z,54.24
2023-05-28T09:19:16.055Z,54.12
2023-05-28T09:21:55.699Z,54.49
2023-05-28T09:24:25.626Z,54.65
2023-05-28T09:26:55.237Z,54.90
2023-05-28T09:29:21.828Z,54.97
2023-05-28T09:31:55.456Z,54.41
2023-05-28T09:34:22.130Z,53.79
2023-05-28T09:36:52.339Z,53.87
2023-05-28T09:39:19.123Z,54.03
2023-05-28T09:41:51.576Z,54.09
2023-05-28T09:44:21.042Z,54.16
2023-05-28T09:46:47.914Z,54.18
2023-05-28T09:49:17.252Z,54.15
2023-05-28T09:51:48.817Z,54.39
2023-05-28T09:54:15.561Z,54.11
2023-05-28T09:56:46.880Z,54.47
2023-05-28T09:59:18.441Z,54.64
2023-05-28T10:01:52.293Z,54.42
2023-05-28T10:04:20.272Z,54.51
2023-05-28T10:06:47.433Z,54.04
2023-05-28T10:09:15.958Z,54.07
2023-05-28T10:11:55.805Z,54.20
2023-05-28T10:14:27.124Z,54.36
2023-05-28T10:16:54.241Z,54.52
2023-05-28T10:19:25.834Z,54.42
2023-05-28T10:21:56.741Z,54.09
2023-05-28T10:24:30.360Z,54.08
2023-05-28T10:27:00.207Z,54.34
2023-05-28T10:29:27.154Z,54.51
2023-05-28T10:32:06.099Z,54.63
2023-05-28T10:34:36.731Z,54.54
2023-05-28T10:37:04.857Z,54.26
2023-05-28T10:39:44.884Z,54.23
2023-05-28T10:42:15.160Z,54.00
2023-05-28T10:44:53.868Z,53.76
2023-05-28T10:47:23.569Z,54.18
2023-05-28T10:50:06.810Z,53.89
2023-05-28T10:52:40.888Z,53.70
2023-05-28T10:55:12.924Z,53.79
2023-05-28T10:57:49.143Z,53.55
2023-05-28T11:00:28.954Z,53.36
2023-05-28T11:02:58.217Z,53.24
2023-05-28T11:05:25.789Z,52.98
2023-05-28T11:07:54.153Z,53.20
2023-05-28T11:10:21.077Z,53.22
2023-05-28T11:12:48.962Z,53.39
2023-05-28T11:15:15.850Z,53.58
2023-05-28T11:17:42.936Z,53.36
2023-05-28T11:20:20.448Z,53.14
2023-05-28T11:22:50.119Z,53.24
2023-05-28T11:25:17.176Z,53.01
2023-05-28T11:27:44.448Z,53.23
2023-05-28T11:30:13.216Z,53.13
2023-05-28T11:32:42.849Z,52.93
2023-05-28T11:35:16.184Z,52.71
2023-05-28T11:37:44.099Z,52.69
2023-05-28T11:40:16.757Z,52.86
2023-05-28T11:42:46.068Z,53.01
2023-05-28T11:45:15.535Z,53.19
2023-05-28T11:47:42.295Z,53.06
2023-05-28T11:50:10.399Z,53.18
2023-05-28T11:52:37.480Z,53.45
2023-05-28T11:55:08.211Z,53.21
2023-05-28T11:57:38.581Z,53.14
2023-05-28T12:00:07.393Z,53.38
2023-05-28T12:02:37.698Z,53.13
2023-05-28T12:07:38.210Z,52.76
2023-05-28T12:12:36.340Z,52.48
2023-05-28T12:15:03.957Z,52.10
2023-05-28T12:17:34.986Z,51.87
2023-05-28T12:20:02.754Z,51.90
2023-05-28T12:22:29.904Z,52.34
2023-05-28T12:24:56.813Z,52.66
2023-05-28T12:27:23.789Z,52.71
2023-05-28T12:29:51.058Z,52.49
2023-05-28T12:32:20.631Z,52.38
2023-05-28T12:34:50.741Z,52.40
2023-05-28T12:37:17.758Z,52.20
2023-05-28T12:39:44.777Z,52.12
2023-05-28T12:42:17.096Z,52.05
2023-05-28T12:44:43.868Z,51.98
2023-05-28T12:47:14.514Z,52.07
2023-05-28T12:49:41.561Z,51.95
2023-05-28T12:52:11.789Z,51.77
2023-05-28T12:54:41.832Z,51.70
2023-05-28T12:57:18.144Z,51.84
2023-05-28T12:59:45.182Z,52.26
2023-05-28T13:02:12.033Z,52.48
2023-05-28T13:04:41.582Z,52.57
2023-05-28T13:07:11.401Z,52.67
2023-05-28T13:09:41.220Z,52.66
2023-05-28T13:12:08.269Z,52.58
2023-05-28T13:14:38.622Z,52.56
2023-05-28T13:17:05.536Z,52.53
2023-05-28T13:19:32.327Z,52.35
2023-05-28T13:21:59.452Z,52.25
2023-05-28T13:24:40.027Z,52.30
2023-05-28T13:27:13.388Z,52.26
2023-05-28T13:29:40.260Z,52.22
2023-05-28T13:32:07.414Z,52.01
2023-05-28T13:34:34.368Z,52.07
2023-05-28T13:37:01.274Z,52.06
2023-05-28T13:39:28.169Z,51.92
2023-05-28T13:41:55.042Z,52.13
2023-05-28T13:44:21.971Z,52.19
2023-05-28T13:46:48.895Z,52.10
2023-05-28T13:49:19.285Z,52.30
2023-05-28T13:51:49.597Z,52.34
2023-05-28T13:54:16.434Z,52.14
2023-05-28T13:56:43.877Z,52.06
2023-05-28T13:59:10.766Z,51.90
2023-05-28T14:01:40.706Z,51.99
2023-05-28T14:04:07.822Z,51.92
2023-05-28T14:06:38.514Z,51.83
2023-05-28T14:09:05.455Z,52.21
2023-05-28T14:11:54.027Z,52.33
2023-05-28T14:14:22.867Z,52.59
2023-05-28T14:16:50.197Z,52.81
2023-05-28T14:19:18.589Z,52.74
2023-05-28T14:21:45.875Z,52.85
2023-05-28T14:24:12.479Z,52.98
2023-05-28T14:26:39.187Z,53.00
2023-05-28T14:29:06.416Z,52.85
2023-05-28T14:31:33.497Z,52.85
2023-05-28T14:34:03.365Z,52.67
2023-05-28T14:36:30.749Z,52.48
2023-05-28T14:39:00.413Z,52.44
2023-05-28T14:41:27.431Z,52.60
2023-05-28T14:43:57.405Z,52.58
2023-05-28T14:46:24.465Z,52.61
2023-05-28T14:48:51.361Z,52.65
2023-05-28T14:51:17.948Z,52.60
2023-05-28T14:53:44.505Z,52.61
2023-05-28T14:56:11.016Z,52.61
2023-05-28T14:58:37.569Z,52.63
2023-05-28T15:01:04.600Z,52.66
2023-05-28T15:03:31.780Z,52.72
2023-05-28T15:05:58.667Z,52.75
2023-05-28T15:08:25.356Z,52.79
2023-05-28T15:10:51.945Z,52.86
2023-05-28T15:13:18.806Z,52.88
2023-05-28T15:15:45.518Z,52.90
2023-05-28T15:18:12.197Z,52.94
2023-05-28T15:20:38.889Z,52.99
2023-05-28T15:23:05.523Z,53.01
2023-05-28T15:25:34.919Z,53.06
2023-05-28T15:28:02.072Z,53.08
2023-05-28T15:30:28.735Z,53.12
2023-05-28T15:32:56.635Z,53.11
2023-05-28T15:35:23.302Z,53.13
2023-05-28T15:37:50.055Z,53.14
2023-05-28T15:40:16.799Z,53.19
2023-05-28T15:42:44.552Z,53.24
2023-05-28T15:45:11.392Z,53.26
2023-05-28T15:47:37.975Z,53.30
2023-05-28T15:50:04.788Z,53.32
2023-05-28T15:52:31.496Z,53.34
2023-05-28T15:54:58.267Z,53.34
2023-05-28T15:57:24.940Z,53.36
2023-05-28T15:59:51.604Z,53.36
2023-05-28T16:02:22.977Z,53.37
2023-05-28T16:04:49.645Z,53.35
2023-05-28T16:07:16.516Z,53.35
2023-05-28T16:09:43.708Z,53.35
2023-05-28T16:12:12.228Z,53.36
2023-05-28T16:14:41.248Z,53.38
2023-05-28T16:17:09.095Z,53.38
2023-05-28T16:19:35.772Z,53.38
2023-05-28T16:22:02.473Z,53.41
2023-05-28T16:24:29.058Z,53.41
2023-05-28T16:26:55.774Z,53.43
2023-05-28T16:29:22.444Z,53.44
2023-05-28T16:31:49.195Z,53.46
2023-05-28T16:34:16.312Z,53.48
2023-05-28T16:36:46.040Z,53.49
2023-05-28T16:39:12.657Z,53.52
2023-05-28T16:41:39.305Z,53.52
2023-05-28T16:44:05.959Z,53.52
2023-05-28T16:46:32.587Z,53.54
2023-05-28T16:48:59.326Z,53.54
2023-05-28T16:51:25.917Z,53.54
2023-05-28T16:53:52.461Z,53.55
2023-05-28T16:56:19.007Z,53.54
2023-05-28T16:58:45.667Z,53.56
2023-05-28T17:01:12.218Z,53.58
2023-05-28T17:03:41.972Z,53.58
2023-05-28T17:06:08.591Z,53.62
2023-05-28T17:08:35.278Z,53.64
2023-05-28T17:11:01.889Z,53.63
2023-05-28T17:13:28.599Z,53.65
2023-05-28T17:15:56.902Z,53.66
2023-05-28T17:18:23.543Z,53.68
2023-05-28T17:20:50.169Z,53.70
2023-05-28T17:23:22.950Z,53.70
2023-05-28T17:25:52.657Z,53.73
2023-05-28T17:28:19.297Z,53.74
2023-05-28T17:30:45.859Z,53.78
2023-05-28T17:33:12.520Z,53.78
2023-05-28T17:35:39.113Z,53.82
2023-05-28T17:38:06.214Z,53.84
2023-05-28T17:40:32.853Z,53.88
2023-05-28T17:42:59.382Z,53.90
2023-05-28T17:45:25.885Z,53.90
2023-05-28T17:47:52.561Z,53.94
2023-05-28T17:50:19.120Z,53.97
2023-05-28T17:52:49.152Z,53.98
2023-05-28T17:55:19.152Z,53.98
2023-05-28T17:57:46.402Z,53.99
2023-05-28T18:00:13.639Z,54.03
2023-05-28T18:02:41.078Z,54.06
2023-05-28T18:05:11.237Z,54.19
2023-05-28T18:07:38.510Z,54.42
2023-05-28T18:10:07.135Z,54.49
2023-05-28T18:12:35.041Z,54.57
2023-05-28T18:15:02.218Z,54.68
2023-05-28T18:17:29.126Z,54.70
2023-05-28T18:19:56.126Z,54.75
2023-05-28T18:22:22.926Z,54.75
2023-05-28T18:24:52.677Z,54.88
2023-05-28T18:27:21.269Z,55.07
2023-05-28T18:29:48.746Z,55.22
2023-05-28T18:32:15.698Z,55.11
2023-05-28T18:34:43.192Z,55.15
2023-05-28T18:37:09.940Z,55.16
2023-05-28T18:39:36.979Z,55.24
2023-05-28T18:42:03.943Z,55.37
2023-05-28T18:44:30.873Z,55.27
2023-05-28T18:46:57.893Z,55.26
2023-05-28T18:49:27.857Z,55.25
2023-05-28T18:51:54.826Z,55.25
2023-05-28T18:54:21.931Z,55.25
2023-05-28T18:56:52.218Z,55.30
2023-05-28T18:59:19.091Z,55.30
2023-05-28T19:01:46.061Z,55.27
2023-05-28T19:04:13.206Z,55.23
2023-05-28T19:06:42.396Z,54.90
2023-05-28T19:09:09.488Z,54.93
2023-05-28T19:11:36.281Z,55.19
2023-05-28T19:14:03.367Z,55.27
2023-05-28T19:16:31.001Z,55.43
2023-05-28T19:18:57.858Z,55.62
2023-05-28T19:21:27.634Z,55.49
2023-05-28T19:23:54.822Z,55.36
2023-05-28T19:26:24.701Z,55.43
2023-05-28T19:28:51.464Z,55.55
2023-05-28T19:31:23.975Z,55.35
2023-05-28T19:33:54.850Z,55.18
2023-05-28T19:36:21.913Z,55.03
2023-05-28T19:38:48.846Z,54.86
2023-05-28T19:41:15.974Z,54.88
2023-05-28T19:43:42.968Z,54.95
2023-05-28T19:46:09.848Z,55.05
2023-05-28T19:48:39.823Z,55.12
2023-05-28T19:51:06.693Z,55.18
2023-05-28T19:53:36.770Z,55.19
2023-05-28T19:56:06.104Z,55.43
2023-05-28T19:58:33.107Z,55.35
2023-05-28T20:01:04.105Z,55.48
2023-05-28T20:03:34.573Z,55.42
2023-05-28T20:06:01.318Z,55.41
2023-05-28T20:08:28.307Z,55.40
2023-05-28T20:10:55.101Z,55.50
2023-05-28T20:13:21.812Z,55.46
2023-05-28T20:15:54.171Z,55.52
2023-05-28T20:18:21.316Z,55.53
2023-05-28T20:20:51.226Z,55.52
2023-05-28T20:23:18.150Z,55.60
2023-05-28T20:25:47.377Z,55.63
2023-05-28T20:28:14.075Z,55.61
2023-05-28T20:30:40.658Z,55.58
2023-05-28T20:33:07.534Z,55.75
2023-05-28T20:35:37.257Z,55.83
2023-05-28T20:38:05.168Z,55.83
2023-05-28T20:40:37.784Z,55.88
2023-05-28T20:43:04.624Z,55.92
2023-05-28T20:45:31.654Z,55.97
2023-05-28T20:48:01.725Z,56.03
2023-05-28T20:50:33.364Z,56.09
2023-05-28T20:53:01.223Z,56.13
2023-05-28T20:55:31.093Z,56.16
2023-05-28T20:57:57.927Z,56.17
2023-05-28T21:00:24.791Z,56.22
2023-05-28T21:02:52.676Z,56.23
2023-05-28T21:05:19.721Z,56.26
2023-05-28T21:07:46.474Z,56.29
2023-05-28T21:10:13.335Z,56.31
2023-05-28T21:12:43.073Z,56.70
2023-05-28T21:15:10.200Z,56.89
2023-05-28T21:17:36.921Z,57.02
2023-05-28T21:20:03.989Z,57.00
2023-05-28T21:22:30.740Z,56.99
2023-05-28T21:24:57.512Z,57.01
2023-05-28T21:27:24.337Z,57.06
2023-05-28T21:29:51.100Z,57.05
2023-05-28T21:32:18.686Z,57.07
2023-05-28T21:34:45.605Z,57.07
2023-05-28T21:37:12.661Z,57.11
2023-05-28T21:39:45.836Z,57.10
2023-05-28T21:42:15.682Z,57.16
2023-05-28T21:44:45.836Z,57.15
2023-05-28T21:47:12.649Z,57.12
2023-05-28T21:49:39.402Z,57.10
2023-05-28T21:52:06.308Z,57.13
2023-05-28T21:54:39.263Z,57.09
2023-05-28T21:57:06.022Z,57.07
2023-05-28T21:59:32.817Z,57.08
2023-05-28T22:02:00.024Z,57.01
2023-05-28T22:04:27.081Z,57.07
2023-05-28T22:06:53.801Z,57.11
2023-05-28T22:09:20.549Z,57.11
2023-05-28T22:11:47.462Z,57.11
2023-05-28T22:14:19.175Z,57.05
2023-05-28T22:16:46.321Z,57.06
2023-05-28T22:19:13.608Z,57.05
2023-05-28T22:21:41.975Z,57.06
2023-05-28T22:24:12.085Z,57.04
2023-05-28T22:26:44.513Z,57.04
2023-05-28T22:29:14.296Z,57.03
2023-05-28T22:31:42.593Z,57.02
2023-05-28T22:34:12.848Z,57.02
2023-05-28T22:36:39.742Z,57.06
2023-05-28T22:39:06.434Z,57.08
2023-05-28T22:41:36.328Z,57.07
2023-05-28T22:44:09.038Z,56.98
2023-05-28T22:46:40.386Z,57.00
2023-05-28T22:49:14.480Z,56.97
2023-05-28T22:51:42.865Z,56.97
2023-05-28T22:54:13.621Z,56.93
2023-05-28T22:56:43.526Z,56.92
2023-05-28T22:59:13.516Z,56.93
2023-05-28T23:01:44.552Z,56.93
2023-05-28T23:04:14.736Z,56.93
2023-05-28T23:06:47.396Z,56.92
2023-05-28T23:09:14.130Z,56.93
2023-05-28T23:11:41.071Z,56.91
2023-05-28T23:14:07.911Z,56.82
2023-05-28T23:16:38.074Z,56.81
2023-05-28T23:19:05.023Z,56.76
2023-05-28T23:21:31.954Z,56.75
2023-05-28T23:23:59.201Z,56.69
2023-05-28T23:26:25.940Z,56.64
2023-05-28T23:28:58.982Z,56.62
2023-05-28T23:31:28.937Z,56.65
2023-05-28T23:33:57.883Z,56.61
2023-05-28T23:36:29.800Z,56.61
2023-05-28T23:38:56.605Z,56.60
2023-05-28T23:41:26.225Z,56.60
2023-05-28T23:43:53.157Z,56.56
2023-05-28T23:46:19.826Z,56.54
2023-05-28T23:48:46.852Z,56.56
2023-05-28T23:51:13.850Z,56.53
2023-05-28T23:53:43.142Z,56.48
2023-05-28T23:56:12.808Z,56.47
2023-05-28T23:58:39.624Z,56.49
